Time;durP1;ratioP1;P1;durP2;ratioP2;P2;SDS_P1;SDS_P2;PMS_P1;PMS_P2;Temp;Humidity;BMP_temperature;BMP_pressure;BME280_temperature;BME280_humidity;BME280_pressure;Samples;Min_cycle;Max_cycle;Signal;HPM_P1;HPM_P2
2021/05/19 00:00:10;;;;;;;2.42;0.80;;;;;;;7.97;100.00;95835.91;1027595;28;20289;-50
2021/05/19 00:00:40;;;;;;;1.88;0.75;;;;;;;8.01;100.00;95834.78;1035494;28;20030;-48
2021/05/19 00:01:11;;;;;;;1.75;0.95;;;;;;;7.98;100.00;95833.22;1035651;28;20332;-50
2021/05/19 00:01:46;;;;;;;2.15;1.00;;;;;;;7.97;100.00;95834.16;1031511;28;20021;-48
2021/05/19 00:02:16;;;;;;;1.65;0.90;;;;;;;7.92;100.00;95835.34;1031487;28;20113;-49
2021/05/19 00:02:47;;;;;;;1.48;0.82;;;;;;;7.90;100.00;95834.63;1027576;28;20312;-51
2021/05/19 00:03:18;;;;;;;2.85;0.80;;;;;;;7.90;100.00;95835.47;1035510;28;20125;-49
2021/05/19 00:03:49;;;;;;;2.05;0.80;;;;;;;7.90;100.00;95829.41;1031355;28;20504;-49
2021/05/19 00:04:20;;;;;;;1.55;0.73;;;;;;;7.88;100.00;95839.09;1035687;28;20026;-49
2021/05/19 00:04:51;;;;;;;1.63;0.90;;;;;;;7.89;100.00;95828.56;1027551;28;20289;-48
2021/05/19 00:05:22;;;;;;;3.13;1.17;;;;;;;7.94;100.00;95833.53;1027421;28;20077;-48
2021/05/19 00:05:53;;;;;;;1.58;0.80;;;;;;;7.93;100.00;95829.22;1027677;28;20106;-49
2021/05/19 00:06:24;;;;;;;2.72;1.00;;;;;;;7.97;100.00;95830.69;1031660;28;20109;-50
2021/05/19 00:06:55;;;;;;;2.25;1.08;;;;;;;7.95;100.00;95832.56;1023589;28;20450;-49
2021/05/19 00:07:26;;;;;;;1.08;0.70;;;;;;;7.91;100.00;95831.09;1031501;28;20620;-49
2021/05/19 00:07:57;;;;;;;1.85;0.75;;;;;;;7.94;100.00;95831.75;1023528;28;20303;-49
2021/05/19 00:08:28;;;;;;;2.22;0.80;;;;;;;7.96;100.00;95827.25;1031654;28;20046;-48
2021/05/19 00:08:59;;;;;;;4.13;0.90;;;;;;;8.00;100.00;95833.13;1023477;28;20274;-49
2021/05/19 00:09:30;;;;;;;3.53;0.90;;;;;;;7.94;100.00;95831.75;1027484;28;20023;-50
2021/05/19 00:10:01;;;;;;;2.38;1.00;;;;;;;7.88;100.00;95834.75;1031457;28;20276;-51
2021/05/19 00:10:33;;;;;;;1.42;0.80;;;;;;;7.87;100.00;95834.81;1027530;28;20262;-49
2021/05/19 00:11:04;;;;;;;6.90;1.27;;;;;;;7.89;100.00;95833.78;1027681;28;20250;-49
2021/05/19 00:11:36;;;;;;;4.10;1.25;;;;;;;7.87;100.00;95827.84;1023404;28;20769;-50
2021/05/19 00:12:08;;;;;;;2.50;0.93;;;;;;;7.81;100.00;95833.44;1027494;28;20022;-49
2021/05/19 00:12:39;;;;;;;1.77;0.90;;;;;;;7.78;100.00;95833.59;1031523;28;20258;-49
2021/05/19 00:13:10;;;;;;;4.00;0.85;;;;;;;7.83;100.00;95830.69;1027544;28;20582;-49
2021/05/19 00:13:41;;;;;;;3.00;1.02;;;;;;;7.85;100.00;95832.31;1023350;29;20609;-49
2021/05/19 00:14:14;;;;;;;2.45;1.00;;;;;;;7.84;100.00;95830.63;1023430;29;20258;-51
2021/05/19 00:14:45;;;;;;;2.47;0.70;;;;;;;7.90;100.00;95827.66;1023511;29;20405;-50
2021/05/19 00:15:17;;;;;;;1.17;0.60;;;;;;;7.93;100.00;95827.44;1027514;28;20269;-49
2021/05/19 00:15:48;;;;;;;1.42;0.70;;;;;;;7.94;100.00;95836.97;1027625;28;20022;-49
2021/05/19 00:16:18;;;;;;;5.95;1.00;;;;;;;7.86;100.00;95833.13;1023519;29;20283;-49
2021/05/19 00:16:50;;;;;;;4.50;0.90;;;;;;;7.88;100.00;95832.13;1027597;28;20266;-49
2021/05/19 00:17:20;;;;;;;2.47;1.00;;;;;;;7.91;100.00;95833.69;1031549;28;20270;-48
2021/05/19 00:17:52;;;;;;;4.30;0.80;;;;;;;7.90;100.00;95835.47;1023507;29;20614;-48
2021/05/19 00:18:23;;;;;;;2.95;1.35;;;;;;;7.90;100.00;95839.84;1027535;28;20027;-49
2021/05/19 00:18:54;;;;;;;4.95;0.90;;;;;;;7.90;100.00;95835.47;1027563;28;20258;-50
2021/05/19 00:19:25;;;;;;;2.22;1.00;;;;;;;7.87;100.00;95832.22;1031553;28;20023;-48
2021/05/19 00:19:56;;;;;;;1.52;0.95;;;;;;;7.89;100.00;95831.19;1023531;28;20287;-49
2021/05/19 00:20:27;;;;;;;2.55;0.93;;;;;;;7.87;100.00;95840.03;1027470;28;20278;-48
2021/05/19 00:20:58;;;;;;;2.72;0.90;;;;;;;7.88;100.00;95832.13;1027526;28;20019;-49
2021/05/19 00:21:29;;;;;;;3.58;1.08;;;;;;;7.90;100.00;95835.47;1027489;28;20266;-49
2021/05/19 00:21:59;;;;;;;3.42;1.20;;;;;;;7.90;100.00;95830.25;1027370;28;20062;-49
2021/05/19 00:22:30;;;;;;;1.75;1.00;;;;;;;7.93;100.00;95834.44;1035451;28;20069;-51
2021/05/19 00:23:01;;;;;;;2.63;0.90;;;;;;;7.90;100.00;95830.25;1027521;28;20018;-48
2021/05/19 00:23:33;;;;;;;2.13;0.93;;;;;;;7.83;100.00;95828.97;1027347;28;20034;-50
2021/05/19 00:24:06;;;;;;;1.88;1.02;;;;;;;7.86;100.00;95828.75;1031377;28;20277;-49
2021/05/19 00:24:37;;;;;;;2.50;0.80;;;;;;;7.89;100.00;95830.34;1031503;28;20296;-50
2021/05/19 00:25:09;;;;;;;6.38;1.20;;;;;;;7.95;100.00;95829.97;1027531;28;20265;-50
2021/05/19 00:25:40;;;;;;;3.00;1.15;;;;;;;7.93;100.00;95835.28;1027509;28;20784;-48
2021/05/19 00:26:11;;;;;;;3.08;0.82;;;;;;;7.94;100.00;95830.91;1031454;28;20285;-49
2021/05/19 00:26:42;;;;;;;2.25;1.00;;;;;;;7.98;100.00;95829.78;1031489;28;20763;-48
2021/05/19 00:27:13;;;;;;;2.15;0.90;;;;;;;7.95;100.00;95822.97;1027522;28;20525;-50
2021/05/19 00:27:44;;;;;;;1.80;0.80;;;;;;;7.96;100.00;95829.88;1039723;28;20253;-52
2021/05/19 00:28:15;;;;;;;3.97;1.40;;;;;;;8.00;100.00;95830.53;1031463;28;20034;-49
2021/05/19 00:28:50;;;;;;;2.35;1.02;;;;;;;7.96;100.00;95829.03;1027484;28;20019;-49
2021/05/19 00:29:21;;;;;;;1.75;0.90;;;;;;;7.96;100.00;95829.88;1023527;29;20031;-50
2021/05/19 00:29:53;;;;;;;2.33;0.90;;;;;;;7.96;100.00;95835.09;1027564;28;20306;-50
2021/05/19 00:30:24;;;;;;;3.35;1.00;;;;;;;7.94;100.00;95823.91;1027369;28;20321;-49
2021/05/19 00:30:57;;;;;;;2.63;0.88;;;;;;;7.85;100.00;95832.31;1027485;28;20676;-50
2021/05/19 00:31:35;;;;;;;3.08;1.13;;;;;;;7.85;100.00;95829.69;1032182;28;20504;-49
2021/05/19 00:32:07;;;;;;;2.00;0.90;;;;;;;7.87;100.00;95830.44;1024197;29;20267;-51
2021/05/19 00:32:38;;;;;;;2.63;1.02;;;;;;;7.83;100.00;95826.34;1032152;28;20280;-49
2021/05/19 00:33:09;;;;;;;2.13;0.90;;;;;;;7.84;100.00;95830.63;1028269;28;20053;-50
2021/05/19 00:33:39;;;;;;;3.72;1.10;;;;;;;7.88;100.00;95826.91;1032096;28;20027;-48
2021/05/19 00:34:12;;;;;;;2.35;0.93;;;;;;;7.87;100.00;95819.19;1032263;28;20018;-48
2021/05/19 00:34:44;;;;;;;1.60;0.90;;;;;;;7.81;100.00;95825.59;1028156;28;20034;-53
2021/05/19 00:35:15;;;;;;;4.22;1.45;;;;;;;7.85;100.00;95829.69;1028256;28;20638;-48
2021/05/19 00:35:46;;;;;;;5.82;1.00;;;;;;;7.88;100.00;95826.06;1024180;28;20348;-48
2021/05/19 00:36:17;;;;;;;1.75;0.90;;;;;;;7.85;100.00;95821.88;1036363;28;20026;-47
2021/05/19 00:36:48;;;;;;;2.15;1.00;;;;;;;7.90;100.00;95826.78;1032117;28;20025;-48
2021/05/19 00:37:19;;;;;;;3.50;1.00;;;;;;;7.88;100.00;95826.91;1036295;28;20296;-50
2021/05/19 00:37:50;;;;;;;2.15;1.00;;;;;;;7.87;100.00;95827.84;1032237;28;20018;-49
2021/05/19 00:38:21;;;;;;;2.70;1.20;;;;;;;7.87;100.00;95829.63;1032240;28;20340;-49
2021/05/19 00:38:53;;;;;;;2.80;1.00;;;;;;;7.89;100.00;95827.75;1032112;28;20037;-49
2021/05/19 00:39:24;;;;;;;3.30;0.95;;;;;;;7.89;100.00;95820.75;1028228;28;20071;-48
2021/05/19 00:39:55;;;;;;;3.15;1.00;;;;;;;7.90;100.00;95830.25;1032310;28;20269;-49
2021/05/19 00:40:26;;;;;;;2.33;1.00;;;;;;;7.85;100.00;95832.31;1028346;28;20748;-49
2021/05/19 00:40:57;;;;;;;2.40;1.27;;;;;;;7.83;100.00;95828.09;1036250;28;20268;-49
2021/05/19 00:41:28;;;;;;;9.85;1.30;;;;;;;7.81;100.00;95830.81;1024204;28;20488;-49
2021/05/19 00:41:59;;;;;;;2.80;0.95;;;;;;;7.83;100.00;95828.97;1032221;28;20114;-51
2021/05/19 00:42:30;;;;;;;2.75;1.20;;;;;;;7.77;100.00;95831.91;1024133;29;20020;-49
2021/05/19 00:43:01;;;;;;;3.42;1.20;;;;;;;7.80;100.00;95829.13;1028117;28;20270;-49
2021/05/19 00:43:32;;;;;;;2.92;1.20;;;;;;;7.84;100.00;95835.84;1028018;28;20313;-48
2021/05/19 00:44:05;;;;;;;2.67;1.10;;;;;;;7.84;100.00;95829.78;1032237;28;20109;-50
2021/05/19 00:44:36;;;;;;;2.25;1.13;;;;;;;7.85;100.00;95827.09;1028123;28;20258;-48
2021/05/19 00:45:09;;;;;;;2.53;1.15;;;;;;;7.87;100.00;95827.00;1036225;28;20260;-48
2021/05/19 00:45:40;;;;;;;4.20;1.38;;;;;;;7.78;100.00;95828.41;1036302;28;20046;-49
2021/05/19 00:46:10;;;;;;;2.10;1.00;;;;;;;7.77;100.00;95837.13;1032220;28;20297;-49
2021/05/19 00:46:42;;;;;;;2.00;1.10;;;;;;;7.75;100.00;95828.56;1028175;28;20264;-50
2021/05/19 00:47:30;;;;;;;3.88;0.98;;;;;;;7.77;100.00;95824.09;1032089;28;20173;-50
2021/05/19 00:48:01;;;;;;;3.22;1.30;;;;;;;7.80;100.00;95829.13;1028246;28;20624;-49
2021/05/19 00:48:33;;;;;;;2.22;1.10;;;;;;;7.75;100.00;95825.97;1028240;28;20266;-49
2021/05/19 00:49:04;;;;;;;2.92;1.27;;;;;;;7.70;100.00;95826.25;1024180;28;20281;-49
2021/05/19 00:49:35;;;;;;;2.90;1.02;;;;;;;7.71;100.00;95832.31;1028128;28;20270;-48
2021/05/19 00:50:08;;;;;;;2.58;1.10;;;;;;;7.73;100.00;95835.66;1032366;28;20352;-48
2021/05/19 00:50:39;;;;;;;2.13;1.10;;;;;;;7.74;100.00;95832.13;1036369;28;20021;-50
2021/05/19 00:51:10;;;;;;;2.72;1.17;;;;;;;7.73;100.00;95838.25;1032139;28;20266;-50
2021/05/19 00:51:42;;;;;;;2.70;1.30;;;;;;;7.70;100.00;95836.69;1031991;28;20296;-48
2021/05/19 00:52:13;;;;;;;2.97;1.20;;;;;;;7.69;100.00;95839.38;1028234;28;20033;-48
2021/05/19 00:52:43;;;;;;;2.90;1.17;;;;;;;7.68;100.00;95841.16;1032191;28;20284;-50
2021/05/19 00:53:14;;;;;;;2.53;1.00;;;;;;;7.68;100.00;95835.94;1032151;28;20015;-49
2021/05/19 00:53:45;;;;;;;3.17;1.20;;;;;;;7.67;100.00;95836.03;1031971;28;20049;-48
2021/05/19 00:54:16;;;;;;;4.15;1.50;;;;;;;7.67;100.00;95838.63;1027896;28;20759;-49
2021/05/19 00:54:47;;;;;;;4.60;1.35;;;;;;;7.63;100.00;95839.75;1028155;28;20250;-49
2021/05/19 00:55:19;;;;;;;2.97;1.20;;;;;;;7.67;100.00;95841.25;1028113;28;20034;-49
2021/05/19 00:55:49;;;;;;;2.72;1.50;;;;;;;7.61;100.00;95832.03;1028136;28;20019;-48
2021/05/19 00:56:20;;;;;;;4.43;1.63;;;;;;;7.66;100.00;95837.81;1028218;28;20325;-49
2021/05/19 00:56:52;;;;;;;2.63;1.20;;;;;;;7.67;100.00;95838.63;1036280;28;20029;-48
2021/05/19 00:57:23;;;;;;;4.50;1.40;;;;;;;7.69;100.00;95839.38;1032222;28;20356;-49
2021/05/19 00:57:54;;;;;;;4.10;1.42;;;;;;;7.67;100.00;95843.84;1028115;28;20258;-49
2021/05/19 00:58:26;;;;;;;2.53;1.55;;;;;;;7.66;100.00;95844.78;1032777;28;20038;-50
2021/05/19 00:58:59;;;;;;;2.00;1.00;;;;;;;7.68;100.00;95840.34;1037191;28;20249;-49
2021/05/19 00:59:30;;;;;;;4.25;1.38;;;;;;;7.73;100.00;95841.72;1028187;28;20266;-49
2021/05/19 01:00:01;;;;;;;3.38;1.15;;;;;;;7.67;100.00;95844.69;1028079;28;20289;-49
2021/05/19 01:00:32;;;;;;;2.60;1.25;;;;;;;7.63;100.00;95843.19;1028069;28;20042;-49
2021/05/19 01:01:03;;;;;;;3.08;1.20;;;;;;;7.64;100.00;95831.84;1028217;28;20050;-49
2021/05/19 01:01:35;;;;;;;4.50;1.33;;;;;;;7.57;100.00;95841.81;1032158;28;20252;-48
2021/05/19 01:02:06;;;;;;;4.25;1.55;;;;;;;7.61;100.00;95836.41;1032064;28;20022;-49
2021/05/19 01:02:37;;;;;;;2.50;1.20;;;;;;;7.64;100.00;95837.06;1036165;28;20245;-49
2021/05/19 01:03:08;;;;;;;3.85;1.38;;;;;;;7.61;100.00;95832.03;1028239;28;20105;-49
2021/05/19 01:03:39;;;;;;;2.40;1.20;;;;;;;7.62;100.00;95836.31;1032459;28;20077;-48
2021/05/19 01:04:10;;;;;;;3.75;1.20;;;;;;;7.63;100.00;95839.75;1032149;28;20703;-48
2021/05/19 01:04:41;;;;;;;2.88;1.20;;;;;;;7.62;100.00;95840.69;1036158;28;20020;-50
2021/05/19 01:05:20;;;;;;;4.82;1.30;;;;;;;7.62;100.00;95832.84;1028143;28;20329;-49
2021/05/19 01:05:56;;;;;;;2.53;1.23;;;;;;;7.64;100.00;95837.06;1024060;29;20247;-49
2021/05/19 01:09:55;;;;;;;2.95;1.30;;;;;;;7.54;100.00;95834.16;1024215;29;20791;-49
2021/05/19 01:10:26;;;;;;;4.93;1.58;;;;;;;7.54;100.00;95838.53;1032283;28;20258;-48
2021/05/19 01:10:57;;;;;;;2.85;1.20;;;;;;;7.53;100.00;95837.72;1036255;28;20654;-50
2021/05/19 01:11:27;;;;;;;4.00;1.35;;;;;;;7.56;100.00;95837.53;1024158;28;20042;-49
2021/05/19 01:11:59;;;;;;;7.30;1.70;;;;;;;7.58;100.00;95840.03;1027930;28;20309;-51
2021/05/19 01:12:30;;;;;;;3.08;1.35;;;;;;;7.58;100.00;95834.81;1024164;28;20030;-49
2021/05/19 01:13:01;;;;;;;3.40;1.30;;;;;;;7.55;100.00;95835.84;1028111;28;20673;-48
2021/05/19 01:13:33;;;;;;;2.95;1.20;;;;;;;7.56;100.00;95834.94;1024067;28;20634;-49
2021/05/19 01:14:04;;;;;;;3.63;1.17;;;;;;;7.55;100.00;95832.41;1032073;28;20624;-50
2021/05/19 01:14:35;;;;;;;5.80;1.67;;;;;;;7.54;100.00;95838.53;1031927;28;20292;-51
2021/05/19 01:15:07;;;;;;;2.78;1.10;;;;;;;7.48;100.00;95837.13;1028108;28;20513;-48
2021/05/19 01:15:38;;;;;;;3.90;1.42;;;;;;;7.54;100.00;95833.31;1028066;28;20033;-49
2021/05/19 01:16:09;;;;;;;2.05;1.08;;;;;;;7.48;100.00;95833.69;1032057;28;20281;-49
2021/05/19 01:16:40;;;;;;;3.85;1.58;;;;;;;7.45;100.00;95836.47;1032110;28;20105;-48
2021/05/19 01:17:11;;;;;;;3.40;1.30;;;;;;;7.48;100.00;95834.53;1036153;28;20257;-48
2021/05/19 01:17:42;;;;;;;5.28;1.30;;;;;;;7.48;100.00;95837.13;1032280;28;20393;-49
2021/05/19 01:18:13;;;;;;;2.80;1.55;;;;;;;7.50;100.00;95832.66;1028041;28;20259;-50
2021/05/19 01:18:44;;;;;;;2.95;1.23;;;;;;;7.49;100.00;95837.97;1028048;28;20019;-49
2021/05/19 01:19:15;;;;;;;3.28;1.23;;;;;;;7.52;100.00;95837.78;1032034;28;20021;-49
2021/05/19 01:19:47;;;;;;;2.97;1.33;;;;;;;7.52;100.00;95835.19;1036219;28;20045;-49
2021/05/19 01:20:18;;;;;;;4.97;1.73;;;;;;;7.45;100.00;95839.09;1040160;28;20381;-50
2021/05/19 01:20:49;;;;;;;3.85;1.10;;;;;;;7.48;100.00;95836.31;1027977;28;20397;-49
2021/05/19 01:21:20;;;;;;;3.47;1.17;;;;;;;7.48;100.00;95834.53;1036116;28;20029;-48
2021/05/19 01:21:51;;;;;;;3.67;1.40;;;;;;;7.48;100.00;95834.53;1032094;28;20022;-51
2021/05/19 01:22:24;;;;;;;3.17;1.60;;;;;;;7.46;100.00;95830.34;1024058;28;20026;-50
2021/05/19 01:22:56;;;;;;;3.03;1.55;;;;;;;7.45;100.00;95837.34;1028055;28;20263;-49
2021/05/19 01:23:29;;;;;;;3.47;1.45;;;;;;;7.44;100.00;95838.25;1032023;28;20266;-48
2021/05/19 01:24:05;;;;;;;5.43;1.35;;;;;;;7.39;100.00;95842.91;1028001;28;20263;-48
2021/05/19 01:24:38;;;;;;;3.38;1.30;;;;;;;7.39;100.00;95838.53;1027894;28;20636;-49
2021/05/19 01:25:10;;;;;;;3.38;1.63;;;;;;;7.37;100.00;95835.16;1028019;28;20262;-48
2021/05/19 01:25:41;;;;;;;2.45;1.25;;;;;;;7.36;100.00;95840.50;1029397;28;20318;-48
2021/05/19 01:26:13;;;;;;;4.47;1.52;;;;;;;7.38;100.00;95834.25;1028009;28;20270;-50
2021/05/19 01:26:44;;;;;;;3.30;1.45;;;;;;;7.32;100.00;95839.84;1023942;28;20247;-49
2021/05/19 01:27:15;;;;;;;3.60;1.33;;;;;;;7.31;100.00;95834.69;1032060;28;20743;-50
2021/05/19 01:27:55;;;;;;;2.83;1.30;;;;;;;7.31;100.00;95832.94;1028228;28;20238;-48
2021/05/19 01:28:26;;;;;;;2.95;1.23;;;;;;;7.35;100.00;95844.00;1032213;28;20019;-49
2021/05/19 01:28:57;;;;;;;5.15;1.30;;;;;;;7.34;100.00;95843.19;1023972;29;20486;-48
2021/05/19 01:29:28;;;;;;;4.07;1.20;;;;;;;7.35;100.00;95842.22;1032089;28;20316;-49
2021/05/19 01:29:59;;;;;;;3.15;1.50;;;;;;;7.32;100.00;95839.84;1036154;28;20752;-50
2021/05/19 01:30:32;;;;;;;3.38;1.40;;;;;;;7.36;100.00;95838.72;1028004;28;20046;-49
2021/05/19 01:31:03;;;;;;;3.22;1.38;;;;;;;7.36;100.00;95846.53;1027873;28;20265;-48
2021/05/19 01:31:34;;;;;;;4.78;1.40;;;;;;;7.38;100.00;95843.84;1027976;28;20250;-49
2021/05/19 01:32:05;;;;;;;3.35;1.20;;;;;;;7.40;100.00;95841.97;1028000;28;20265;-50
2021/05/19 01:32:37;;;;;;;4.15;1.23;;;;;;;7.41;100.00;95843.63;1028011;28;20250;-48
2021/05/19 01:33:07;;;;;;;3.00;1.50;;;;;;;7.44;100.00;95840.84;1031968;28;20293;-51
2021/05/19 01:33:39;;;;;;;4.18;1.30;;;;;;;7.45;100.00;95844.31;1035916;28;20257;-50
2021/05/19 01:34:09;;;;;;;4.90;1.50;;;;;;;7.43;100.00;95840.94;1032057;28;20026;-51
2021/05/19 01:34:41;;;;;;;4.93;1.27;;;;;;;7.37;100.00;95847.38;1028019;28;20712;-49
2021/05/19 01:35:13;;;;;;;2.92;1.20;;;;;;;7.35;100.00;95844.00;1027929;28;20019;-51
2021/05/19 01:35:44;;;;;;;3.00;1.27;;;;;;;7.40;100.00;95844.59;1036121;28;20315;-48
2021/05/19 01:36:16;;;;;;;3.33;1.50;;;;;;;7.33;100.00;95843.25;1032146;28;20824;-48
2021/05/19 01:36:48;;;;;;;3.28;1.40;;;;;;;7.37;100.00;95842.16;1024111;29;20027;-49
2021/05/19 01:37:19;;;;;;;2.60;1.13;;;;;;;7.41;100.00;95841.03;1035949;28;20855;-48
2021/05/19 01:37:50;;;;;;;3.65;1.20;;;;;;;7.39;100.00;95845.50;1040233;28;20310;-49
2021/05/19 01:38:21;;;;;;;3.22;1.20;;;;;;;7.38;100.00;95842.06;1028051;28;20296;-49
2021/05/19 01:38:52;;;;;;;2.70;1.23;;;;;;;7.38;100.00;95849.06;1036092;28;20754;-50
2021/05/19 01:39:23;;;;;;;2.70;1.30;;;;;;;7.40;100.00;95848.03;1035998;28;20364;-49
2021/05/19 01:39:55;;;;;;;2.53;1.20;;;;;;;7.40;100.00;95842.81;1032044;28;20499;-49
2021/05/19 01:40:27;;;;;;;2.78;1.38;;;;;;;7.43;100.00;95840.94;1032153;28;20336;-49
2021/05/19 01:40:58;;;;;;;3.20;1.30;;;;;;;7.44;100.00;95843.47;1032054;28;20624;-48
2021/05/19 01:41:30;;;;;;;4.68;1.60;;;;;;;7.45;100.00;95846.91;1027890;28;20258;-49
2021/05/19 01:42:00;;;;;;;3.42;1.10;;;;;;;7.40;100.00;95844.59;1032001;28;20033;-50
2021/05/19 01:42:32;;;;;;;2.92;1.23;;;;;;;7.38;100.00;95846.44;1027279;28;20344;-49
2021/05/19 01:43:03;;;;;;;4.55;1.30;;;;;;;7.39;100.00;95845.50;1031432;28;20115;-49
2021/05/19 01:43:35;;;;;;;3.03;1.52;;;;;;;7.37;100.00;95847.38;1031679;28;20324;-51
2021/05/19 01:44:15;;;;;;;3.30;1.40;;;;;;;7.39;100.00;95850.72;1027909;28;20737;-50
2021/05/19 01:44:46;;;;;;;2.58;1.25;;;;;;;7.38;100.00;95844.66;1032044;28;20265;-52
2021/05/19 01:45:22;;;;;;;2.53;1.20;;;;;;;7.37;100.00;95847.38;1032119;28;20393;-51
2021/05/19 01:45:54;;;;;;;3.72;1.42;;;;;;;7.39;100.00;95843.75;1036014;28;20033;-49
2021/05/19 01:46:24;;;;;;;3.67;1.27;;;;;;;7.40;100.00;95848.03;1028012;28;20278;-50
2021/05/19 01:46:56;;;;;;;2.53;1.25;;;;;;;7.41;100.00;95835.81;1031957;28;20262;-48
2021/05/19 01:47:47;;;;;;;2.60;1.30;;;;;;;7.39;100.00;95842.91;1027934;28;20501;-50
2021/05/19 01:48:18;;;;;;;3.53;1.20;;;;;;;7.35;100.00;95839.63;1027928;28;20293;-49
2021/05/19 01:48:56;;;;;;;5.72;1.60;;;;;;;7.39;100.00;95838.53;1032021;28;20264;-49
2021/05/19 01:49:30;;;;;;;3.50;1.35;;;;;;;7.45;100.00;95841.69;1027988;28;20552;-52
2021/05/19 01:50:01;;;;;;;2.97;1.40;;;;;;;7.47;100.00;95845.03;1031942;28;20258;-50
2021/05/19 01:50:33;;;;;;;3.63;1.58;;;;;;;7.53;100.00;95836.88;1027867;28;20341;-49
2021/05/19 01:51:05;;;;;;;4.55;1.40;;;;;;;7.50;100.00;95844.88;1032090;28;20253;-49
2021/05/19 01:51:37;;;;;;;4.40;1.60;;;;;;;7.45;100.00;95847.75;1031771;28;20298;-48
2021/05/19 01:52:09;;;;;;;4.85;1.83;;;;;;;7.46;100.00;95844.22;1035896;28;20404;-49
2021/05/19 01:52:41;;;;;;;3.42;1.20;;;;;;;7.45;100.00;95845.16;1028001;28;20258;-51
2021/05/19 01:53:13;;;;;;;3.70;1.40;;;;;;;7.46;100.00;95848.59;1031890;28;20266;-47
2021/05/19 01:53:43;;;;;;;4.53;1.30;;;;;;;7.41;100.00;95838.44;1031736;28;20265;-50
2021/05/19 01:54:14;;;;;;;2.53;1.20;;;;;;;7.44;100.00;95843.47;1031601;28;20685;-50
2021/05/19 01:54:45;;;;;;;4.15;1.58;;;;;;;7.42;100.00;95844.50;1031930;28;20308;-49
2021/05/19 01:55:16;;;;;;;3.58;1.40;;;;;;;7.42;100.00;95841.91;1027986;28;20101;-48
2021/05/19 01:55:48;;;;;;;3.03;1.40;;;;;;;7.42;100.00;95842.72;1023845;29;20279;-49
2021/05/19 01:56:19;;;;;;;3.70;1.50;;;;;;;7.43;100.00;95844.38;1027979;28;20305;-50
2021/05/19 01:56:49;;;;;;;4.15;1.50;;;;;;;7.48;100.00;95844.97;1023939;28;20259;-48
2021/05/19 01:57:20;;;;;;;5.82;1.42;;;;;;;7.45;100.00;95845.16;1027924;28;20401;-49
2021/05/19 01:57:52;;;;;;;3.20;1.30;;;;;;;7.49;100.00;95837.97;1027824;28;20029;-51
2021/05/19 01:58:23;;;;;;;4.07;1.25;;;;;;;7.49;100.00;95844.03;1027879;28;20340;-51
2021/05/19 01:58:54;;;;;;;7.05;1.55;;;;;;;7.49;100.00;95836.22;1031900;28;20266;-50
2021/05/19 01:59:25;;;;;;;3.08;1.33;;;;;;;7.44;100.00;95848.69;1031954;28;20261;-51
2021/05/19 01:59:56;;;;;;;3.05;1.42;;;;;;;7.42;100.00;95844.50;1031964;28;20544;-50
2021/05/19 02:00:27;;;;;;;3.30;1.30;;;;;;;7.40;100.00;95847.19;1031903;28;20374;-51
2021/05/19 02:00:58;;;;;;;6.03;1.63;;;;;;;7.42;100.00;95847.09;1031926;28;20010;-48
2021/05/19 02:01:29;;;;;;;3.55;1.55;;;;;;;7.43;100.00;95846.16;1027895;28;20246;-49
2021/05/19 02:02:00;;;;;;;3.42;1.30;;;;;;;7.45;100.00;95849.50;1027856;28;20289;-49
2021/05/19 02:02:31;;;;;;;4.15;1.50;;;;;;;7.46;100.00;95844.22;1023825;29;20251;-49
2021/05/19 02:03:05;;;;;;;3.80;1.40;;;;;;;7.38;100.00;95860.31;1032136;28;20034;-48
2021/05/19 02:03:36;;;;;;;2.83;1.15;;;;;;;7.40;100.00;95849.78;1035787;28;20265;-49
2021/05/19 02:04:10;;;;;;;3.85;1.50;;;;;;;7.40;100.00;95850.63;1032033;28;20617;-51
2021/05/19 02:04:41;;;;;;;3.33;1.33;;;;;;;7.35;100.00;95842.22;1027870;28;20333;-53
2021/05/19 02:05:13;;;;;;;2.95;1.45;;;;;;;7.37;100.00;95845.59;1023895;29;20247;-49
2021/05/19 02:05:44;;;;;;;4.00;1.40;;;;;;;7.42;100.00;95844.50;1035987;28;20069;-47
2021/05/19 02:06:15;;;;;;;2.65;1.40;;;;;;;7.44;100.00;95846.06;1035847;28;20268;-48
2021/05/19 02:06:55;;;;;;;2.47;1.30;;;;;;;7.41;100.00;95846.25;1031898;28;20273;-48
2021/05/19 02:07:26;;;;;;;3.65;1.65;;;;;;;7.42;100.00;95842.72;1032044;28;20746;-48
2021/05/19 02:07:57;;;;;;;4.30;1.40;;;;;;;7.40;100.00;95845.41;1031995;28;20026;-50
2021/05/19 02:08:28;;;;;;;3.95;1.38;;;;;;;7.40;100.00;95847.19;1031818;28;20027;-48
2021/05/19 02:08:59;;;;;;;2.10;1.30;;;;;;;7.40;100.00;95839.38;1031964;28;20257;-49
2021/05/19 02:09:30;;;;;;;2.38;1.30;;;;;;;7.39;100.00;95850.72;1039971;28;20483;-49
2021/05/19 02:10:03;;;;;;;7.20;1.50;;;;;;;7.40;100.00;95847.19;1031965;28;20023;-48
2021/05/19 02:10:35;;;;;;;3.92;1.48;;;;;;;7.36;100.00;95846.53;1027766;28;20393;-50
2021/05/19 02:11:06;;;;;;;3.08;1.40;;;;;;;7.38;100.00;95844.66;1027953;28;20278;-49
2021/05/19 02:11:37;;;;;;;3.30;1.40;;;;;;;7.35;100.00;95851.84;1027821;28;20269;-48
2021/05/19 02:12:09;;;;;;;4.68;1.30;;;;;;;7.35;100.00;95850.06;1027840;28;20080;-51
2021/05/19 02:12:40;;;;;;;3.45;1.50;;;;;;;7.30;100.00;95846.03;1027747;28;20265;-50
2021/05/19 02:13:11;;;;;;;7.13;1.52;;;;;;;7.30;100.00;95843.44;1027862;28;20258;-48
2021/05/19 02:13:42;;;;;;;3.40;1.60;;;;;;;7.28;100.00;95848.75;1031686;28;20714;-49
2021/05/19 02:14:13;;;;;;;3.83;1.58;;;;;;;7.31;100.00;95851.16;1035948;28;20257;-48
2021/05/19 02:14:44;;;;;;;3.88;1.63;;;;;;;7.35;100.00;95846.63;1031806;28;20061;-49
2021/05/19 02:15:16;;;;;;;4.72;1.52;;;;;;;7.34;100.00;95852.78;1031915;28;20712;-49
2021/05/19 02:15:48;;;;;;;4.57;1.85;;;;;;;7.33;100.00;95858.91;1024017;28;20258;-51
2021/05/19 02:16:18;;;;;;;4.75;1.73;;;;;;;7.34;100.00;95851.00;1027864;28;20258;-48
2021/05/19 02:16:50;;;;;;;4.45;1.50;;;;;;;7.34;100.00;95852.78;1035764;28;20681;-49
2021/05/19 02:17:20;;;;;;;4.90;1.67;;;;;;;7.29;100.00;95852.19;1023841;29;20445;-47
2021/05/19 02:17:51;;;;;;;3.85;2.08;;;;;;;7.31;100.00;95856.38;1027854;28;20353;-51
2021/05/19 02:18:23;;;;;;;2.90;1.45;;;;;;;7.35;100.00;95854.44;1031846;28;20464;-47
2021/05/19 02:18:54;;;;;;;3.75;1.20;;;;;;;7.34;100.00;95851.00;1035821;28;20018;-50
2021/05/19 02:19:24;;;;;;;5.38;1.83;;;;;;;7.34;100.00;95858.00;1027788;28;20290;-49
2021/05/19 02:19:55;;;;;;;3.55;1.55;;;;;;;7.34;100.00;95855.38;1027813;28;20258;-49
2021/05/19 02:20:27;;;;;;;5.13;1.73;;;;;;;7.31;100.00;95858.16;1027864;28;20167;-49
2021/05/19 02:21:02;;;;;;;4.72;2.35;;;;;;;7.31;100.00;95852.94;1023801;28;20258;-50
2021/05/19 02:21:34;;;;;;;4.60;1.58;;;;;;;7.34;100.00;95858.81;1023897;29;20759;-49
2021/05/19 02:22:05;;;;;;;3.28;1.67;;;;;;;7.33;100.00;95853.69;1031789;28;20268;-48
2021/05/19 02:22:36;;;;;;;6.03;1.85;;;;;;;7.38;100.00;95854.28;1031854;28;20356;-51
2021/05/19 02:23:07;;;;;;;4.20;1.58;;;;;;;7.39;100.00;95848.97;1027759;28;20254;-47
2021/05/19 02:23:38;;;;;;;4.30;1.70;;;;;;;7.43;100.00;95857.41;1035683;28;20257;-49
2021/05/19 02:24:10;;;;;;;3.65;1.67;;;;;;;7.41;100.00;95859.28;1031808;28;20695;-48
2021/05/19 02:24:41;;;;;;;4.38;1.60;;;;;;;7.36;100.00;95856.97;1027904;28;20023;-48
2021/05/19 02:25:12;;;;;;;3.25;1.50;;;;;;;7.36;100.00;95861.34;1027739;28;20361;-49
2021/05/19 02:25:43;;;;;;;4.45;1.83;;;;;;;7.35;100.00;95862.25;1031964;28;20014;-48
2021/05/19 02:26:15;;;;;;;4.18;1.67;;;;;;;7.37;100.00;95860.41;1031843;28;20262;-49
2021/05/19 02:26:46;;;;;;;2.70;1.58;;;;;;;7.38;100.00;95859.47;1031839;28;20297;-51
2021/05/19 02:27:17;;;;;;;3.67;1.90;;;;;;;7.40;100.00;95861.06;1031683;28;20262;-49
2021/05/19 02:27:49;;;;;;;4.10;1.60;;;;;;;7.40;100.00;95862.84;1035938;28;20292;-50
2021/05/19 02:28:20;;;;;;;4.55;1.90;;;;;;;7.38;100.00;95859.47;1031833;28;20026;-49
2021/05/19 02:28:51;;;;;;;4.15;1.92;;;;;;;7.37;100.00;95863.00;1031898;28;20274;-48
2021/05/19 02:29:22;;;;;;;4.63;1.73;;;;;;;7.37;100.00;95858.63;1031715;28;20254;-50
2021/05/19 02:29:54;;;;;;;6.47;1.98;;;;;;;7.35;100.00;95860.47;1027854;28;20250;-50
2021/05/19 02:30:25;;;;;;;3.92;1.90;;;;;;;7.34;100.00;95858.81;1027800;28;20051;-48
2021/05/19 02:30:56;;;;;;;4.65;1.70;;;;;;;7.37;100.00;95860.41;1023824;29;20310;-49
2021/05/19 02:31:27;;;;;;;4.07;1.63;;;;;;;7.43;100.00;95860.03;1031682;28;20698;-48
2021/05/19 02:31:58;;;;;;;6.65;2.20;;;;;;;7.38;100.00;95860.31;1023764;28;20701;-48
2021/05/19 02:32:30;;;;;;;4.63;2.10;;;;;;;7.35;100.00;95860.47;1031807;28;20632;-48